sensor_id;sensor_type;location;lat;lon;timestamp;P1;durP1;ratioP1;P2;durP2;ratioP2
77612;SDS011;66777;52.282;5.960;2023-04-25T00:01:31;17.42;;;5.40;;
77612;SDS011;66777;52.282;5.960;2023-04-25T00:04:01;15.60;;;5.55;;
77612;SDS011;66777;52.282;5.960;2023-04-25T00:06:27;10.88;;;8.63;;
77612;SDS011;66777;52.282;5.960;2023-04-25T00:08:55;10.93;;;7.28;;
77612;SDS011;66777;52.282;5.960;2023-04-25T00:11:22;12.32;;;5.57;;
77612;SDS011;66777;52.282;5.960;2023-04-25T00:13:48;22.13;;;7.60;;
77612;SDS011;66777;52.282;5.960;2023-04-25T00:16:15;12.55;;;5.10;;
77612;SDS011;66777;52.282;5.960;2023-04-25T00:18:41;8.40;;;5.43;;
77612;SDS011;66777;52.282;5.960;2023-04-25T00:21:08;10.40;;;4.95;;
77612;SDS011;66777;52.282;5.960;2023-04-25T00:23:33;16.10;;;5.43;;
77612;SDS011;66777;52.282;5.960;2023-04-25T00:26:01;10.55;;;4.93;;
77612;SDS011;66777;52.282;5.960;2023-04-25T00:28:27;6.95;;;5.25;;
77612;SDS011;66777;52.282;5.960;2023-04-25T00:30:53;9.90;;;4.88;;
77612;SDS011;66777;52.282;5.960;2023-04-25T00:33:19;12.68;;;4.55;;
77612;SDS011;66777;52.282;5.960;2023-04-25T00:35:45;10.75;;;5.32;;
77612;SDS011;66777;52.282;5.960;2023-04-25T00:38:10;12.60;;;5.30;;
77612;SDS011;66777;52.282;5.960;2023-04-25T00:40:37;13.75;;;5.63;;
77612;SDS011;66777;52.282;5.960;2023-04-25T00:43:03;11.18;;;5.65;;
77612;SDS011;66777;52.282;5.960;2023-04-25T00:45:29;17.63;;;5.82;;
77612;SDS011;66777;52.282;5.960;2023-04-25T00:47:55;13.45;;;7.35;;
77612;SDS011;66777;52.282;5.960;2023-04-25T00:50:22;14.43;;;5.38;;
77612;SDS011;66777;52.282;5.960;2023-04-25T00:52:48;10.63;;;5.25;;
77612;SDS011;66777;52.282;5.960;2023-04-25T00:55:14;20.70;;;5.78;;
77612;SDS011;66777;52.282;5.960;2023-04-25T00:57:41;17.00;;;5.07;;
77612;SDS011;66777;52.282;5.960;2023-04-25T01:00:07;12.90;;;5.20;;
77612;SDS011;66777;52.282;5.960;2023-04-25T01:02:38;19.10;;;5.22;;
77612;SDS011;66777;52.282;5.960;2023-04-25T01:05:07;11.63;;;6.30;;
77612;SDS011;66777;52.282;5.960;2023-04-25T01:07:34;14.73;;;6.20;;
77612;SDS011;66777;52.282;5.960;2023-04-25T01:10:00;14.48;;;5.78;;
77612;SDS011;66777;52.282;5.960;2023-04-25T01:12:26;17.55;;;5.32;;
77612;SDS011;66777;52.282;5.960;2023-04-25T01:14:52;14.55;;;5.35;;
77612;SDS011;66777;52.282;5.960;2023-04-25T01:17:19;14.13;;;5.13;;
77612;SDS011;66777;52.282;5.960;2023-04-25T01:19:46;13.60;;;5.38;;
77612;SDS011;66777;52.282;5.960;2023-04-25T01:22:13;23.48;;;5.95;;
77612;SDS011;66777;52.282;5.960;2023-04-25T01:24:39;15.20;;;7.40;;
77612;SDS011;66777;52.282;5.960;2023-04-25T01:27:05;13.20;;;5.43;;
77612;SDS011;66777;52.282;5.960;2023-04-25T01:29:33;9.90;;;5.50;;
77612;SDS011;66777;52.282;5.960;2023-04-25T01:32:00;12.88;;;4.65;;
77612;SDS011;66777;52.282;5.960;2023-04-25T01:34:27;16.13;;;5.97;;
77612;SDS011;66777;52.282;5.960;2023-04-25T01:36:52;13.95;;;5.40;;
77612;SDS011;66777;52.282;5.960;2023-04-25T01:39:18;14.80;;;6.13;;
77612;SDS011;66777;52.282;5.960;2023-04-25T01:41:45;10.88;;;5.43;;
77612;SDS011;66777;52.282;5.960;2023-04-25T01:44:12;15.85;;;5.90;;
77612;SDS011;66777;52.282;5.960;2023-04-25T01:46:39;30.42;;;6.53;;
77612;SDS011;66777;52.282;5.960;2023-04-25T01:49:05;15.80;;;5.97;;
77612;SDS011;66777;52.282;5.960;2023-04-25T01:51:32;13.48;;;5.55;;
77612;SDS011;66777;52.282;5.960;2023-04-25T01:53:58;14.63;;;5.93;;
77612;SDS011;66777;52.282;5.960;2023-04-25T01:56:25;20.95;;;6.20;;
77612;SDS011;66777;52.282;5.960;2023-04-25T01:58:55;12.57;;;5.32;;
77612;SDS011;66777;52.282;5.960;2023-04-25T02:01:21;12.30;;;4.95;;
77612;SDS011;66777;52.282;5.960;2023-04-25T02:03:46;16.92;;;5.30;;
77612;SDS011;66777;52.282;5.960;2023-04-25T02:06:12;9.38;;;5.30;;
77612;SDS011;66777;52.282;5.960;2023-04-25T02:08:38;15.38;;;5.63;;
77612;SDS011;66777;52.282;5.960;2023-04-25T02:11:03;13.40;;;5.80;;
77612;SDS011;66777;52.282;5.960;2023-04-25T02:13:29;11.57;;;5.32;;
77612;SDS011;66777;52.282;5.960;2023-04-25T02:15:55;16.08;;;8.82;;
77612;SDS011;66777;52.282;5.960;2023-04-25T02:18:22;13.85;;;4.80;;
77612;SDS011;66777;52.282;5.960;2023-04-25T02:20:48;13.10;;;6.22;;
77612;SDS011;66777;52.282;5.960;2023-04-25T02:23:14;13.05;;;7.15;;
77612;SDS011;66777;52.282;5.960;2023-04-25T02:25:40;9.15;;;4.75;;
77612;SDS011;66777;52.282;5.960;2023-04-25T02:28:07;12.32;;;5.47;;
77612;SDS011;66777;52.282;5.960;2023-04-25T02:30:32;9.60;;;4.57;;
77612;SDS011;66777;52.282;5.960;2023-04-25T02:32:58;25.20;;;8.05;;
77612;SDS011;66777;52.282;5.960;2023-04-25T02:35:24;11.10;;;4.97;;
77612;SDS011;66777;52.282;5.960;2023-04-25T02:37:50;8.82;;;4.40;;
77612;SDS011;66777;52.282;5.960;2023-04-25T02:40:16;22.00;;;5.20;;
77612;SDS011;66777;52.282;5.960;2023-04-25T02:42:41;15.23;;;5.78;;
77612;SDS011;66777;52.282;5.960;2023-04-25T02:45:07;14.00;;;4.88;;
77612;SDS011;66777;52.282;5.960;2023-04-25T02:47:33;10.57;;;5.65;;
77612;SDS011;66777;52.282;5.960;2023-04-25T02:49:59;19.65;;;7.18;;
77612;SDS011;66777;52.282;5.960;2023-04-25T02:52:25;12.43;;;5.15;;
77612;SDS011;66777;52.282;5.960;2023-04-25T02:54:51;14.40;;;5.30;;
77612;SDS011;66777;52.282;5.960;2023-04-25T02:57:17;16.20;;;4.97;;
77612;SDS011;66777;52.282;5.960;2023-04-25T02:59:43;14.43;;;5.80;;
77612;SDS011;66777;52.282;5.960;2023-04-25T03:02:09;15.00;;;5.45;;
77612;SDS011;66777;52.282;5.960;2023-04-25T03:04:35;12.43;;;4.57;;
77612;SDS011;66777;52.282;5.960;2023-04-25T03:07:01;22.80;;;6.03;;
77612;SDS011;66777;52.282;5.960;2023-04-25T03:09:27;15.00;;;5.18;;
77612;SDS011;66777;52.282;5.960;2023-04-25T03:11:53;15.65;;;5.45;;
77612;SDS011;66777;52.282;5.960;2023-04-25T03:14:19;16.05;;;5.32;;
77612;SDS011;66777;52.282;5.960;2023-04-25T03:16:44;11.57;;;5.28;;
77612;SDS011;66777;52.282;5.960;2023-04-25T03:19:10;12.50;;;5.13;;
77612;SDS011;66777;52.282;5.960;2023-04-25T03:21:36;16.38;;;7.30;;
77612;SDS011;66777;52.282;5.960;2023-04-25T03:24:02;15.23;;;5.53;;
77612;SDS011;66777;52.282;5.960;2023-04-25T03:26:29;14.43;;;4.97;;
77612;SDS011;66777;52.282;5.960;2023-04-25T03:28:55;12.50;;;5.47;;
77612;SDS011;66777;52.282;5.960;2023-04-25T03:31:20;14.38;;;5.82;;
77612;SDS011;66777;52.282;5.960;2023-04-25T03:33:47;13.32;;;6.85;;
77612;SDS011;66777;52.282;5.960;2023-04-25T03:36:13;16.40;;;5.72;;
77612;SDS011;66777;52.282;5.960;2023-04-25T03:38:39;15.20;;;6.45;;
77612;SDS011;66777;52.282;5.960;2023-04-25T03:41:06;16.85;;;6.28;;
77612;SDS011;66777;52.282;5.960;2023-04-25T03:43:32;19.25;;;7.88;;
77612;SDS011;66777;52.282;5.960;2023-04-25T03:45:59;19.42;;;6.10;;
77612;SDS011;66777;52.282;5.960;2023-04-25T03:48:25;15.00;;;5.53;;
77612;SDS011;66777;52.282;5.960;2023-04-25T03:50:52;13.40;;;5.95;;
77612;SDS011;66777;52.282;5.960;2023-04-25T03:53:20;14.35;;;5.40;;
77612;SDS011;66777;52.282;5.960;2023-04-25T03:55:46;10.30;;;5.85;;
77612;SDS011;66777;52.282;5.960;2023-04-25T03:58:12;14.10;;;5.18;;
77612;SDS011;66777;52.282;5.960;2023-04-25T04:00:38;12.50;;;5.50;;
77612;SDS011;66777;52.282;5.960;2023-04-25T04:03:04;13.05;;;5.50;;
77612;SDS011;66777;52.282;5.960;2023-04-25T04:05:30;7.90;;;5.15;;
77612;SDS011;66777;52.282;5.960;2023-04-25T04:07:56;13.07;;;8.27;;
77612;SDS011;66777;52.282;5.960;2023-04-25T04:10:22;17.10;;;5.85;;
77612;SDS011;66777;52.282;5.960;2023-04-25T04:12:48;17.98;;;5.38;;
77612;SDS011;66777;52.282;5.960;2023-04-25T04:15:13;9.25;;;4.68;;
77612;SDS011;66777;52.282;5.960;2023-04-25T04:17:39;9.35;;;5.25;;
77612;SDS011;66777;52.282;5.960;2023-04-25T04:20:06;12.30;;;4.78;;
77612;SDS011;66777;52.282;5.960;2023-04-25T04:22:33;11.80;;;7.35;;
77612;SDS011;66777;52.282;5.960;2023-04-25T04:24:59;16.95;;;5.32;;
77612;SDS011;66777;52.282;5.960;2023-04-25T04:27:25;10.60;;;5.65;;
77612;SDS011;66777;52.282;5.960;2023-04-25T04:29:51;12.93;;;6.53;;
77612;SDS011;66777;52.282;5.960;2023-04-25T04:32:18;10.25;;;4.63;;
77612;SDS011;66777;52.282;5.960;2023-04-25T04:34:44;12.23;;;4.90;;
77612;SDS011;66777;52.282;5.960;2023-04-25T04:37:10;9.05;;;5.28;;
77612;SDS011;66777;52.282;5.960;2023-04-25T04:39:38;8.63;;;6.88;;
77612;SDS011;66777;52.282;5.960;2023-04-25T04:42:04;15.35;;;5.82;;
77612;SDS011;66777;52.282;5.960;2023-04-25T04:44:30;11.48;;;7.13;;
77612;SDS011;66777;52.282;5.960;2023-04-25T04:49:27;12.98;;;4.68;;
77612;SDS011;66777;52.282;5.960;2023-04-25T04:51:53;9.43;;;4.30;;
77612;SDS011;66777;52.282;5.960;2023-04-25T04:54:19;10.13;;;3.92;;
77612;SDS011;66777;52.282;5.960;2023-04-25T04:56:45;9.57;;;4.70;;
77612;SDS011;66777;52.282;5.960;2023-04-25T04:59:11;12.48;;;4.95;;
77612;SDS011;66777;52.282;5.960;2023-04-25T05:01:37;13.43;;;4.10;;
77612;SDS011;66777;52.282;5.960;2023-04-25T05:04:03;15.93;;;4.80;;
77612;SDS011;66777;52.282;5.960;2023-04-25T05:06:30;11.95;;;4.82;;
77612;SDS011;66777;52.282;5.960;2023-04-25T05:08:56;10.07;;;4.85;;
77612;SDS011;66777;52.282;5.960;2023-04-25T05:11:23;9.05;;;4.20;;
77612;SDS011;66777;52.282;5.960;2023-04-25T05:13:53;11.48;;;5.28;;
77612;SDS011;66777;52.282;5.960;2023-04-25T05:16:19;9.25;;;4.63;;
77612;SDS011;66777;52.282;5.960;2023-04-25T05:18:46;7.20;;;4.60;;
77612;SDS011;66777;52.282;5.960;2023-04-25T05:21:12;9.30;;;4.18;;
77612;SDS011;66777;52.282;5.960;2023-04-25T05:23:38;10.38;;;6.35;;
77612;SDS011;66777;52.282;5.960;2023-04-25T05:26:04;14.88;;;4.28;;
77612;SDS011;66777;52.282;5.960;2023-04-25T05:28:31;8.80;;;4.38;;
77612;SDS011;66777;52.282;5.960;2023-04-25T05:30:57;8.82;;;4.72;;
77612;SDS011;66777;52.282;5.960;2023-04-25T05:33:23;10.00;;;5.60;;
77612;SDS011;66777;52.282;5.960;2023-04-25T05:35:51;11.18;;;4.70;;
77612;SDS011;66777;52.282;5.960;2023-04-25T05:38:16;10.88;;;4.20;;
77612;SDS011;66777;52.282;5.960;2023-04-25T05:40:42;11.40;;;5.07;;
77612;SDS011;66777;52.282;5.960;2023-04-25T05:43:10;14.88;;;4.95;;
77612;SDS011;66777;52.282;5.960;2023-04-25T05:45:35;11.18;;;5.10;;
77612;SDS011;66777;52.282;5.960;2023-04-25T05:48:01;10.50;;;4.80;;
77612;SDS011;66777;52.282;5.960;2023-04-25T05:50:27;10.52;;;4.63;;
77612;SDS011;66777;52.282;5.960;2023-04-25T05:52:53;12.98;;;4.70;;
77612;SDS011;66777;52.282;5.960;2023-04-25T05:55:19;12.40;;;5.18;;
77612;SDS011;66777;52.282;5.960;2023-04-25T05:57:45;7.38;;;5.28;;
77612;SDS011;66777;52.282;5.960;2023-04-25T06:00:12;6.65;;;4.90;;
77612;SDS011;66777;52.282;5.960;2023-04-25T06:02:39;9.77;;;4.68;;
77612;SDS011;66777;52.282;5.960;2023-04-25T06:05:06;8.50;;;5.22;;
77612;SDS011;66777;52.282;5.960;2023-04-25T06:07:31;11.85;;;5.43;;
77612;SDS011;66777;52.282;5.960;2023-04-25T06:09:58;11.40;;;8.07;;
77612;SDS011;66777;52.282;5.960;2023-04-25T06:12:25;10.27;;;7.53;;
77612;SDS011;66777;52.282;5.960;2023-04-25T06:14:51;10.05;;;5.40;;
77612;SDS011;66777;52.282;5.960;2023-04-25T06:17:17;9.55;;;5.32;;
77612;SDS011;66777;52.282;5.960;2023-04-25T06:19:43;13.65;;;5.22;;
77612;SDS011;66777;52.282;5.960;2023-04-25T06:22:09;8.30;;;5.82;;
77612;SDS011;66777;52.282;5.960;2023-04-25T06:24:35;10.63;;;5.30;;
77612;SDS011;66777;52.282;5.960;2023-04-25T06:27:01;12.50;;;5.38;;
77612;SDS011;66777;52.282;5.960;2023-04-25T06:29:27;8.55;;;6.00;;
77612;SDS011;66777;52.282;5.960;2023-04-25T06:31:53;14.82;;;5.10;;
77612;SDS011;66777;52.282;5.960;2023-04-25T06:34:18;7.65;;;5.32;;
77612;SDS011;66777;52.282;5.960;2023-04-25T06:36:44;12.65;;;4.82;;
77612;SDS011;66777;52.282;5.960;2023-04-25T06:39:10;8.65;;;5.38;;
77612;SDS011;66777;52.282;5.960;2023-04-25T06:41:36;8.45;;;5.50;;
77612;SDS011;66777;52.282;5.960;2023-04-25T06:44:02;9.50;;;5.68;;
77612;SDS011;66777;52.282;5.960;2023-04-25T06:46:28;9.68;;;6.50;;
77612;SDS011;66777;52.282;5.960;2023-04-25T06:48:53;12.73;;;6.63;;
77612;SDS011;66777;52.282;5.960;2023-04-25T06:51:19;8.48;;;5.60;;
77612;SDS011;66777;52.282;5.960;2023-04-25T06:53:45;9.90;;;6.03;;
77612;SDS011;66777;52.282;5.960;2023-04-25T06:56:11;9.88;;;5.78;;
77612;SDS011;66777;52.282;5.960;2023-04-25T06:58:37;8.90;;;5.75;;
77612;SDS011;66777;52.282;5.960;2023-04-25T07:01:03;9.38;;;5.82;;
77612;SDS011;66777;52.282;5.960;2023-04-25T07:03:29;10.18;;;6.28;;
77612;SDS011;66777;52.282;5.960;2023-04-25T07:05:55;12.75;;;5.28;;
77612;SDS011;66777;52.282;5.960;2023-04-25T07:08:21;6.43;;;5.78;;
77612;SDS011;66777;52.282;5.960;2023-04-25T07:10:46;7.78;;;6.28;;
77612;SDS011;66777;52.282;5.960;2023-04-25T07:13:12;11.73;;;5.93;;
77612;SDS011;66777;52.282;5.960;2023-04-25T07:15:38;9.55;;;6.00;;
77612;SDS011;66777;52.282;5.960;2023-04-25T07:18:03;7.10;;;5.88;;
77612;SDS011;66777;52.282;5.960;2023-04-25T07:20:29;9.30;;;6.05;;
77612;SDS011;66777;52.282;5.960;2023-04-25T07:22:56;10.45;;;5.78;;
77612;SDS011;66777;52.282;5.960;2023-04-25T07:25:22;8.57;;;6.55;;
77612;SDS011;66777;52.282;5.960;2023-04-25T07:27:48;10.77;;;5.60;;
77612;SDS011;66777;52.282;5.960;2023-04-25T07:30:14;13.70;;;6.22;;
77612;SDS011;66777;52.282;5.960;2023-04-25T07:32:41;12.15;;;6.03;;
77612;SDS011;66777;52.282;5.960;2023-04-25T07:35:06;8.38;;;5.70;;
77612;SDS011;66777;52.282;5.960;2023-04-25T07:37:33;12.55;;;7.25;;
77612;SDS011;66777;52.282;5.960;2023-04-25T07:40:01;8.65;;;7.40;;
77612;SDS011;66777;52.282;5.960;2023-04-25T07:42:28;8.23;;;7.20;;
77612;SDS011;66777;52.282;5.960;2023-04-25T07:44:54;8.02;;;6.47;;
77612;SDS011;66777;52.282;5.960;2023-04-25T07:47:20;7.40;;;5.85;;
77612;SDS011;66777;52.282;5.960;2023-04-25T07:49:46;7.32;;;6.20;;
77612;SDS011;66777;52.282;5.960;2023-04-25T07:52:12;7.32;;;5.80;;
77612;SDS011;66777;52.282;5.960;2023-04-25T07:54:38;6.05;;;5.55;;
77612;SDS011;66777;52.282;5.960;2023-04-25T07:57:05;10.32;;;9.63;;
77612;SDS011;66777;52.282;5.960;2023-04-25T07:59:31;6.05;;;5.40;;
77612;SDS011;66777;52.282;5.960;2023-04-25T08:01:57;6.80;;;6.07;;
77612;SDS011;66777;52.282;5.960;2023-04-25T08:04:23;5.60;;;4.93;;
77612;SDS011;66777;52.282;5.960;2023-04-25T08:06:51;8.55;;;5.53;;
77612;SDS011;66777;52.282;5.960;2023-04-25T08:09:19;6.47;;;5.97;;
77612;SDS011;66777;52.282;5.960;2023-04-25T08:11:45;6.82;;;6.05;;
77612;SDS011;66777;52.282;5.960;2023-04-25T08:14:11;6.40;;;5.75;;
77612;SDS011;66777;52.282;5.960;2023-04-25T08:16:38;6.90;;;6.22;;
77612;SDS011;66777;52.282;5.960;2023-04-25T08:19:05;10.00;;;9.20;;
77612;SDS011;66777;52.282;5.960;2023-04-25T08:21:31;8.68;;;5.30;;
77612;SDS011;66777;52.282;5.960;2023-04-25T08:23:57;9.57;;;6.88;;
77612;SDS011;66777;52.282;5.960;2023-04-25T08:26:24;7.05;;;6.45;;
77612;SDS011;66777;52.282;5.960;2023-04-25T08:28:50;7.38;;;6.65;;
77612;SDS011;66777;52.282;5.960;2023-04-25T08:31:16;11.95;;;11.10;;
77612;SDS011;66777;52.282;5.960;2023-04-25T08:33:42;8.05;;;6.97;;
77612;SDS011;66777;52.282;5.960;2023-04-25T08:36:10;10.77;;;7.57;;
77612;SDS011;66777;52.282;5.960;2023-04-25T08:38:35;8.18;;;7.57;;
77612;SDS011;66777;52.282;5.960;2023-04-25T08:41:01;9.43;;;8.48;;
77612;SDS011;66777;52.282;5.960;2023-04-25T08:43:28;11.85;;;8.40;;
77612;SDS011;66777;52.282;5.960;2023-04-25T08:45:58;10.90;;;8.48;;
77612;SDS011;66777;52.282;5.960;2023-04-25T08:48:26;10.45;;;9.52;;
77612;SDS011;66777;52.282;5.960;2023-04-25T08:50:54;10.85;;;9.95;;
77612;SDS011;66777;52.282;5.960;2023-04-25T08:53:30;9.38;;;8.05;;
77612;SDS011;66777;52.282;5.960;2023-04-25T08:55:58;16.70;;;15.50;;
77612;SDS011;66777;52.282;5.960;2023-04-25T08:58:27;12.93;;;11.95;;
77612;SDS011;66777;52.282;5.960;2023-04-25T09:00:53;9.00;;;8.38;;
77612;SDS011;66777;52.282;5.960;2023-04-25T09:03:19;7.90;;;6.78;;
77612;SDS011;66777;52.282;5.960;2023-04-25T09:05:45;7.32;;;6.65;;
77612;SDS011;66777;52.282;5.960;2023-04-25T09:08:11;7.75;;;7.05;;
77612;SDS011;66777;52.282;5.960;2023-04-25T09:10:37;7.53;;;6.80;;
77612;SDS011;66777;52.282;5.960;2023-04-25T09:15:49;7.57;;;6.72;;
77612;SDS011;66777;52.282;5.960;2023-04-25T09:18:27;7.75;;;7.15;;
77612;SDS011;66777;52.282;5.960;2023-04-25T09:21:12;7.90;;;7.15;;
77612;SDS011;66777;52.282;5.960;2023-04-25T09:23:43;8.10;;;7.47;;
77612;SDS011;66777;52.282;5.960;2023-04-25T09:26:13;13.77;;;12.82;;
77612;SDS011;66777;52.282;5.960;2023-04-25T09:28:44;11.40;;;8.02;;
77612;SDS011;66777;52.282;5.960;2023-04-25T09:31:11;10.75;;;8.88;;
77612;SDS011;66777;52.282;5.960;2023-04-25T09:33:37;10.23;;;9.40;;
77612;SDS011;66777;52.282;5.960;2023-04-25T09:36:04;10.13;;;9.15;;
77612;SDS011;66777;52.282;5.960;2023-04-25T09:38:33;16.00;;;15.05;;
77612;SDS011;66777;52.282;5.960;2023-04-25T09:41:06;11.30;;;10.40;;
77612;SDS011;66777;52.282;5.960;2023-04-25T09:43:33;10.75;;;9.65;;
77612;SDS011;66777;52.282;5.960;2023-04-25T09:45:58;10.18;;;9.48;;
77612;SDS011;66777;52.282;5.960;2023-04-25T09:48:25;16.33;;;15.20;;
77612;SDS011;66777;52.282;5.960;2023-04-25T09:53:42;13.35;;;12.40;;
77612;SDS011;66777;52.282;5.960;2023-04-25T09:56:09;9.73;;;8.82;;
77612;SDS011;66777;52.282;5.960;2023-04-25T09:58:37;10.20;;;9.30;;
77612;SDS011;66777;52.282;5.960;2023-04-25T10:01:05;9.77;;;8.95;;
77612;SDS011;66777;52.282;5.960;2023-04-25T10:03:35;11.35;;;8.65;;
77612;SDS011;66777;52.282;5.960;2023-04-25T10:06:10;9.15;;;8.25;;
77612;SDS011;66777;52.282;5.960;2023-04-25T10:08:38;9.63;;;8.73;;
77612;SDS011;66777;52.282;5.960;2023-04-25T10:11:05;11.25;;;10.35;;
77612;SDS011;66777;52.282;5.960;2023-04-25T10:13:33;10.05;;;9.15;;
77612;SDS011;66777;52.282;5.960;2023-04-25T10:16:00;10.30;;;8.48;;
77612;SDS011;66777;52.282;5.960;2023-04-25T10:18:28;10.75;;;9.65;;
77612;SDS011;66777;52.282;5.960;2023-04-25T10:20:55;11.85;;;10.82;;
77612;SDS011;66777;52.282;5.960;2023-04-25T10:23:22;11.02;;;10.23;;
77612;SDS011;66777;52.282;5.960;2023-04-25T10:25:52;20.05;;;18.88;;
77612;SDS011;66777;52.282;5.960;2023-04-25T10:31:18;12.30;;;11.32;;
77612;SDS011;66777;52.282;5.960;2023-04-25T10:33:41;12.55;;;11.45;;
77612;SDS011;66777;52.282;5.960;2023-04-25T10:36:09;14.95;;;13.55;;
77612;SDS011;66777;52.282;5.960;2023-04-25T10:38:41;16.70;;;15.60;;
77612;SDS011;66777;52.282;5.960;2023-04-25T10:41:10;17.33;;;16.17;;
77612;SDS011;66777;52.282;5.960;2023-04-25T10:43:38;21.42;;;19.88;;
77612;SDS011;66777;52.282;5.960;2023-04-25T10:46:24;24.90;;;23.63;;
77612;SDS011;66777;52.282;5.960;2023-04-25T10:48:53;18.33;;;17.30;;
77612;SDS011;66777;52.282;5.960;2023-04-25T10:51:24;19.45;;;18.05;;
77612;SDS011;66777;52.282;5.960;2023-04-25T10:56:20;18.67;;;17.50;;
77612;SDS011;66777;52.282;5.960;2023-04-25T10:58:48;20.90;;;19.75;;
77612;SDS011;66777;52.282;5.960;2023-04-25T11:01:15;21.58;;;20.38;;
77612;SDS011;66777;52.282;5.960;2023-04-25T11:03:45;49.40;;;47.30;;
77612;SDS011;66777;52.282;5.960;2023-04-25T11:08:48;48.88;;;46.78;;
77612;SDS011;66777;52.282;5.960;2023-04-25T11:11:16;56.22;;;54.03;;
77612;SDS011;66777;52.282;5.960;2023-04-25T11:13:43;62.78;;;60.33;;
77612;SDS011;66777;52.282;5.960;2023-04-25T11:16:10;72.35;;;69.75;;
77612;SDS011;66777;52.282;5.960;2023-04-25T11:18:35;61.40;;;59.03;;
77612;SDS011;66777;52.282;5.960;2023-04-25T11:21:03;52.45;;;50.28;;
77612;SDS011;66777;52.282;5.960;2023-04-25T11:23:29;56.78;;;54.58;;
77612;SDS011;66777;52.282;5.960;2023-04-25T11:25:56;48.63;;;46.65;;
77612;SDS011;66777;52.282;5.960;2023-04-25T11:28:22;44.47;;;42.53;;
77612;SDS011;66777;52.282;5.960;2023-04-25T11:30:51;43.95;;;42.05;;
77612;SDS011;66777;52.282;5.960;2023-04-25T11:33:17;38.45;;;36.75;;
77612;SDS011;66777;52.282;5.960;2023-04-25T11:35:48;46.72;;;44.88;;
77612;SDS011;66777;52.282;5.960;2023-04-25T11:38:14;28.13;;;26.83;;
77612;SDS011;66777;52.282;5.960;2023-04-25T11:40:40;40.13;;;38.20;;
77612;SDS011;66777;52.282;5.960;2023-04-25T11:43:06;25.15;;;23.95;;
77612;SDS011;66777;52.282;5.960;2023-04-25T11:45:32;49.97;;;47.72;;
77612;SDS011;66777;52.282;5.960;2023-04-25T11:47:59;30.25;;;28.75;;
77612;SDS011;66777;52.282;5.960;2023-04-25T11:50:26;28.08;;;26.58;;
77612;SDS011;66777;52.282;5.960;2023-04-25T11:52:55;25.33;;;24.13;;
77612;SDS011;66777;52.282;5.960;2023-04-25T11:55:22;22.77;;;21.38;;
77612;SDS011;66777;52.282;5.960;2023-04-25T11:57:48;24.35;;;23.15;;
77612;SDS011;66777;52.282;5.960;2023-04-25T12:00:16;28.38;;;26.90;;
77612;SDS011;66777;52.282;5.960;2023-04-25T12:02:43;27.17;;;25.67;;
77612;SDS011;66777;52.282;5.960;2023-04-25T12:05:15;29.30;;;28.00;;
77612;SDS011;66777;52.282;5.960;2023-04-25T12:07:41;36.83;;;35.10;;
77612;SDS011;66777;52.282;5.960;2023-04-25T12:10:11;47.05;;;45.05;;
77612;SDS011;66777;52.282;5.960;2023-04-25T12:12:42;48.78;;;46.72;;
77612;SDS011;66777;52.282;5.960;2023-04-25T12:15:23;60.97;;;58.67;;
77612;SDS011;66777;52.282;5.960;2023-04-25T12:17:50;56.13;;;53.83;;
77612;SDS011;66777;52.282;5.960;2023-04-25T12:20:18;36.10;;;34.47;;
77612;SDS011;66777;52.282;5.960;2023-04-25T12:22:47;35.65;;;33.97;;
77612;SDS011;66777;52.282;5.960;2023-04-25T12:25:59;62.58;;;60.15;;
77612;SDS011;66777;52.282;5.960;2023-04-25T12:30:52;93.18;;;90.10;;
77612;SDS011;66777;52.282;5.960;2023-04-25T12:33:22;78.80;;;75.95;;
77612;SDS011;66777;52.282;5.960;2023-04-25T12:35:47;80.38;;;77.57;;
77612;SDS011;66777;52.282;5.960;2023-04-25T12:38:20;59.45;;;57.25;;
77612;SDS011;66777;52.282;5.960;2023-04-25T12:40:51;49.63;;;47.53;;
77612;SDS011;66777;52.282;5.960;2023-04-25T12:43:17;42.90;;;41.17;;
77612;SDS011;66777;52.282;5.960;2023-04-25T12:45:52;41.60;;;39.75;;
77612;SDS011;66777;52.282;5.960;2023-04-25T12:48:19;37.53;;;35.47;;
77612;SDS011;66777;52.282;5.960;2023-04-25T12:50:46;33.55;;;31.95;;
77612;SDS011;66777;52.282;5.960;2023-04-25T12:53:17;28.15;;;26.75;;
77612;SDS011;66777;52.282;5.960;2023-04-25T12:55:46;26.00;;;24.50;;
77612;SDS011;66777;52.282;5.960;2023-04-25T12:58:16;25.48;;;24.08;;
77612;SDS011;66777;52.282;5.960;2023-04-25T13:00:43;27.25;;;25.88;;
77612;SDS011;66777;52.282;5.960;2023-04-25T13:03:09;29.10;;;27.65;;
77612;SDS011;66777;52.282;5.960;2023-04-25T13:05:39;47.88;;;45.85;;
77612;SDS011;66777;52.282;5.960;2023-04-25T13:08:05;25.92;;;24.73;;
77612;SDS011;66777;52.282;5.960;2023-04-25T13:10:31;24.35;;;23.25;;
77612;SDS011;66777;52.282;5.960;2023-04-25T13:12:59;25.25;;;23.95;;
77612;SDS011;66777;52.282;5.960;2023-04-25T13:15:26;23.70;;;22.38;;
77612;SDS011;66777;52.282;5.960;2023-04-25T13:17:52;20.85;;;19.58;;
77612;SDS011;66777;52.282;5.960;2023-04-25T13:20:18;22.20;;;21.05;;
77612;SDS011;66777;52.282;5.960;2023-04-25T13:22:47;19.45;;;18.30;;
77612;SDS011;66777;52.282;5.960;2023-04-25T13:25:13;25.50;;;24.27;;
77612;SDS011;66777;52.282;5.960;2023-04-25T13:27:39;30.08;;;28.58;;
77612;SDS011;66777;52.282;5.960;2023-04-25T13:30:05;40.20;;;38.53;;
77612;SDS011;66777;52.282;5.960;2023-04-25T13:32:35;51.40;;;49.30;;
77612;SDS011;66777;52.282;5.960;2023-04-25T13:35:02;53.95;;;51.80;;
77612;SDS011;66777;52.282;5.960;2023-04-25T13:37:30;52.20;;;50.00;;
77612;SDS011;66777;52.282;5.960;2023-04-25T13:39:58;57.92;;;55.55;;
77612;SDS011;66777;52.282;5.960;2023-04-25T13:42:25;63.15;;;60.65;;
77612;SDS011;66777;52.282;5.960;2023-04-25T13:44:52;61.78;;;59.38;;
77612;SDS011;66777;52.282;5.960;2023-04-25T13:47:18;71.15;;;68.47;;
77612;SDS011;66777;52.282;5.960;2023-04-25T13:49:45;74.03;;;71.20;;
77612;SDS011;66777;52.282;5.960;2023-04-25T13:52:10;86.20;;;82.95;;
77612;SDS011;66777;52.282;5.960;2023-04-25T13:54:36;97.00;;;93.50;;
77612;SDS011;66777;52.282;5.960;2023-04-25T13:57:02;111.47;;;107.80;;
77612;SDS011;66777;52.282;5.960;2023-04-25T13:59:27;95.57;;;92.20;;
77612;SDS011;66777;52.282;5.960;2023-04-25T14:01:53;89.53;;;86.38;;
77612;SDS011;66777;52.282;5.960;2023-04-25T14:04:20;77.10;;;74.10;;
77612;SDS011;66777;52.282;5.960;2023-04-25T14:06:45;63.60;;;61.15;;
77612;SDS011;66777;52.282;5.960;2023-04-25T14:09:11;52.38;;;50.28;;
77612;SDS011;66777;52.282;5.960;2023-04-25T14:11:37;42.22;;;40.40;;
77612;SDS011;66777;52.282;5.960;2023-04-25T14:14:03;40.47;;;38.70;;
77612;SDS011;66777;52.282;5.960;2023-04-25T14:16:29;34.10;;;32.45;;
77612;SDS011;66777;52.282;5.960;2023-04-25T14:18:59;46.50;;;44.53;;
77612;SDS011;66777;52.282;5.960;2023-04-25T14:21:26;28.15;;;26.70;;
77612;SDS011;66777;52.282;5.960;2023-04-25T14:23:53;41.38;;;39.42;;
77612;SDS011;66777;52.282;5.960;2023-04-25T14:26:20;25.42;;;24.23;;
77612;SDS011;66777;52.282;5.960;2023-04-25T14:28:46;25.10;;;23.75;;
77612;SDS011;66777;52.282;5.960;2023-04-25T14:31:11;24.27;;;22.98;;
77612;SDS011;66777;52.282;5.960;2023-04-25T14:33:38;27.65;;;26.33;;
77612;SDS011;66777;52.282;5.960;2023-04-25T14:36:08;30.25;;;28.75;;
77612;SDS011;66777;52.282;5.960;2023-04-25T14:38:33;31.23;;;29.55;;
77612;SDS011;66777;52.282;5.960;2023-04-25T14:40:59;37.78;;;35.90;;
77612;SDS011;66777;52.282;5.960;2023-04-25T14:43:25;34.55;;;32.95;;
77612;SDS011;66777;52.282;5.960;2023-04-25T14:45:51;38.03;;;36.38;;
77612;SDS011;66777;52.282;5.960;2023-04-25T14:48:17;48.35;;;46.08;;
77612;SDS011;66777;52.282;5.960;2023-04-25T14:50:45;75.45;;;72.82;;